SBCY/CGB METAR and TAF weather

Enter ICAO airport designator
Station Type Date Time Source
SBCY METAR 2020/01/22 15:00 UTC NOAA

SBCY 221500Z 28008KT 9999 FEW025 BKN100 32/23 Q1009


Station Type Date Time Source
SBCY Decoded METAR 2020/01/22 15:00 UTC NOAA

Cuiaba Aeroporto , Brazil (SBCY) 15-39S 056-06W 182M
Jan 22, 2020 - 10:00 AM EST / 2020.01.22 1500 UTC
Wind: from the W (280 degrees) at 9 MPH (8 KT):0
Visibility: greater than 7 mile(s):0
Sky conditions: mostly cloudy
Temperature: 89 F (32 C)
Heat index: 96.8 F (36.0 C):1
Dew Point: 73 F (23 C)
Relative Humidity: 59%
Pressure (altimeter): 29.80 in. Hg (1009 hPa)
ob: SBCY 221500Z 28008KT 9999 FEW025 BKN100 32/23 Q1009
cycle: 15

Station Type Date Time Source
SBCY TAF 2020/01/22 12:33 UTC NOAA

TAF SBCY 220900Z 2212/2312 32010KT 9999 FEW020TX36/2218Z TN25/2308Z
BECMG 2213/2215 SCT025 FEW030TCU
BECMG 2216/2218 32010KT TS SCT025 FEW030CB PROB30 2218/2222 32015KT 5000 TSRA BKN017 FEW030CB
BECMG 2303/2305 35005KT NSW FEW020
RMK PGS

Example: see airport list